マレ の空港の天気 - METARとTAF

マレ国際空港 ( VRMM / MLE ) - モルディブ Hulhule Island, North Male Atoll
飛行場実況気象(Metar)
観測時間10/22 16:00 MVT (10/22 11:00 UTC)
風向・風速西南西 6m/s
視程10km以上
天気現象
少しの雲 雲底高度 520m
少しの雲 雲底高度 550m
全天の4割程度の雲 雲底高度 3660m
全天の8割程度の雲 雲底高度 7920m
気温29℃
湿度84%
気圧1007hPa
METARVRMM 221100Z 25012KT 9999 FEW017 FEW018CB SCT120 BKN260 29/26 Q1007 CB WNW TEMPO 4000 SHRA
過去の天気等 Google飛行場航空写真 Wunderground天気予報

過去48時間のMETAR

飛行場予報(TAF)
発表時間: 10/22 16:00 MVT (10/22 11:00 UTC)
予報対象時間: 22日17時 MVT ~ 23日23時 MVT
風向・風速西北西 6m/s
視程10km以上
少しの塔状積雲 雲底高度 550m
全天の4割程度の雲 雲底高度 3660m
22日17時 MVT ~ 22日23時 MVT に一時的に
視程3000m
天気現象雷雨
少しの積乱雲 雲底高度 520m
TAF VRMM 221100Z 2212/2318 29011KT 9999 FEW018TCU SCT120
TEMPO 2212/2218 3000 TSRA FEW017CB